Huntsville Municipal Airport
KUTS : now visible

Airfield :











YOU CAN JOIN US ON...

 
LOGIN :

Register | Disclaimer

   EN    FR    IT 

 









Legend :    VFR   Marginal VFR   IFR   Intensive IFR   Very Intensive IFR
Visi :
Ceiling :
>= 8 km
>= 3000ft
5 to 8 km
1000 to 3000 ft
1500m to 5 km
500 to 1000 ft
800 to 1500m
200 to 500 ft
< 800m
< 200 ft
Symbols :   Thunderstorms  Fog  Heavy snow  Heavy precipitations  Wind > 20 kt






- Airport Elevation : 363 ft


KUTS - Huntsville Municipal

CURRENT METAR :
  • 280653Z AUTO 15005KT 10SM OVC012 12/09 A2994 RMK AO2 SLP138 T01220089

EXPIRED METARs :
  • 280553Z AUTO VRB03KT 10SM OVC011 12/09 A2995 RMK AO2 SLP141 T01220089 10133 20111 401440089 57009
  • 280453Z AUTO 15007KT 10SM OVC009 12/09 A2998 RMK AO2 SLP151 T01170089

TAF KUTS
Valid from the 28 at 06:00 until the 29 at 06:00 UTC


280521Z 2806/2906 15007KT P6SM OVC009
FM281000 VRB03KT 5SM BR VCSH OVC007
FM281300 VRB03KT 5SM SHRA BR OVC005
FM282000 16008KT 6SM -SHRA OVC012
FM282300 19010KT 6SM -SHRA OVC018
FM290200 31008KT P6SM VCSH BKN035



MET'MAP, your aeronautical weather chart ! - Copyright ORBIFLY December 2007 - Disclaimer

ORBIFLY MET'MAP TEAM :

Programming & Development : Alexandra Zaïnal
Concept & original design : Baudouin d'Aumeries
Assistance for programming : Marc-Olivier Méhu
Technical & hardware support : Manuel Goepfert

Contact : metmap@orbifly.com




SOURCES & CREDITS :

   NOAA       Earth
Advisory